Time;durP1;ratioP1;P1;durP2;ratioP2;P2;SDS_P1;SDS_P2;PMS_P1;PMS_P2;Temp;Humidity;BMP_temperature;BMP_pressure;BME280_temperature;BME280_humidity;BME280_pressure;Samples;Min_cycle;Max_cycle;Signal;HPM_P1;HPM_P2
2022/05/09 00:00:09;;;;;;;9.52;3.03;;;14.40;79.80;;;;;;5013164;28;20482;-83
2022/05/09 00:02:38;;;;;;;8.23;2.58;;;14.50;79.80;;;;;;5010913;28;20065;-83
2022/05/09 00:05:05;;;;;;;8.30;2.72;;;14.40;79.70;;;;;;5010606;28;20398;-84
2022/05/09 00:07:31;;;;;;;6.85;2.72;;;14.40;80.10;;;;;;5011025;28;20060;-83
2022/05/09 00:09:57;;;;;;;6.72;2.60;;;14.40;80.00;;;;;;5010982;28;20101;-83
2022/05/09 00:12:23;;;;;;;5.82;2.83;;;14.40;79.80;;;;;;5010829;28;20034;-83
2022/05/09 00:14:49;;;;;;;9.52;2.60;;;14.40;79.90;;;;;;5011075;28;20117;-83
2022/05/09 00:17:14;;;;;;;6.60;2.50;;;14.30;80.00;;;;;;5010871;28;20485;-84
2022/05/09 00:19:40;;;;;;;8.68;3.00;;;14.40;80.10;;;;;;5010780;28;20037;-83
2022/05/09 00:22:06;;;;;;;8.07;2.83;;;14.40;80.10;;;;;;5010688;28;20123;-83
2022/05/09 00:24:31;;;;;;;7.10;3.03;;;14.40;80.00;;;;;;4993241;28;20037;-83
2022/05/09 00:26:57;;;;;;;9.95;3.10;;;14.30;80.20;;;;;;5010806;28;20157;-83
2022/05/09 00:29:24;;;;;;;9.95;3.20;;;14.30;80.50;;;;;;5010665;28;20034;-83
2022/05/09 00:31:53;;;;;;;8.80;3.03;;;14.30;80.40;;;;;;5010634;28;20030;-83
2022/05/09 00:34:21;;;;;;;;;;;14.30;80.60;;;;;;5011213;28;20036;-83
2022/05/09 00:36:48;;;;;;;7.03;2.65;;;14.20;80.30;;;;;;5010615;28;19909;-84
2022/05/09 00:39:15;;;;;;;7.38;2.55;;;14.20;80.30;;;;;;5010674;28;20117;-83
2022/05/09 00:41:42;;;;;;;7.70;3.28;;;14.20;80.50;;;;;;5010720;28;20038;-83
2022/05/09 00:44:11;;;;;;;7.53;3.17;;;14.10;80.70;;;;;;4993180;28;20026;-83
2022/05/09 00:46:39;;;;;;;9.88;3.38;;;14.10;80.60;;;;;;4992827;28;20398;-83
2022/05/09 00:49:25;;;;;;;8.25;2.60;;;14.10;80.40;;;;;;5010783;28;20041;-83
2022/05/09 00:52:10;;;;;;;8.10;2.97;;;14.10;80.40;;;;;;5010508;28;20113;-84
2022/05/09 00:54:47;;;;;;;8.65;2.58;;;14.10;80.10;;;;;;4993210;28;20030;-83
2022/05/09 00:57:37;;;;;;;10.30;3.63;;;14.20;80.10;;;;;;4992810;28;20034;-84
2022/05/09 01:00:14;;;;;;;9.32;3.25;;;14.20;80.00;;;;;;5010649;28;20034;-83
2022/05/09 01:02:43;;;;;;;9.50;3.47;;;14.10;79.90;;;;;;5010394;28;20493;-83
2022/05/09 01:05:12;;;;;;;;;;;14.10;80.00;;;;;;5010946;28;20037;-84
2022/05/09 01:07:38;;;;;;;;;;;14.10;80.00;;;;;;4993039;28;19914;-83
2022/05/09 01:10:04;;;;;;;6.43;2.65;;;14.10;80.20;;;;;;5010479;28;19952;-83
2022/05/09 01:12:36;;;;;;;6.90;2.80;;;14.10;80.20;;;;;;4992602;28;20133;-84
2022/05/09 01:15:08;;;;;;;8.95;3.30;;;14.00;80.20;;;;;;5010472;28;20034;-83
2022/05/09 01:17:39;;;;;;;9.85;2.88;;;14.00;80.30;;;;;;5011741;28;20022;-84
2022/05/09 01:20:09;;;;;;;8.13;2.92;;;14.00;80.50;;;;;;4996286;28;20038;-83
2022/05/09 01:22:37;;;;;;;10.77;3.22;;;13.90;80.80;;;;;;4979873;28;20080;-83
2022/05/09 01:25:06;;;;;;;7.35;2.80;;;14.00;80.80;;;;;;5013885;28;20122;-84
2022/05/09 01:27:33;;;;;;;;;;;13.90;80.80;;;;;;5013949;28;20040;-84
2022/05/09 01:30:24;;;;;;;11.52;3.33;;;14.00;80.90;;;;;;4996241;28;19960;-83
2022/05/09 01:32:57;;;;;;;10.23;3.42;;;14.00;80.80;;;;;;5013498;28;20034;-83
2022/05/09 01:36:02;;;;;;;10.13;2.58;;;14.00;80.70;;;;;;4995962;28;20032;-83
2022/05/09 01:38:39;;;;;;;8.77;3.13;;;14.00;81.20;;;;;;5002785;28;20041;-83
2022/05/09 01:41:05;;;;;;;9.70;3.38;;;13.90;80.50;;;;;;5013569;28;20041;-83
2022/05/09 01:43:33;;;;;;;10.75;3.35;;;13.90;80.80;;;;;;5013476;28;20030;-83
2022/05/09 01:46:00;;;;;;;9.52;3.60;;;13.90;80.70;;;;;;4996076;28;20448;-84
2022/05/09 01:51:11;;;;;;;11.38;3.30;;;13.90;80.90;;;;;;5013436;28;20030;-83
2022/05/09 01:53:37;;;;;;;10.63;3.03;;;13.80;81.00;;;;;;5013414;28;20062;-84
2022/05/09 01:56:03;;;;;;;14.60;4.13;;;13.80;81.10;;;;;;5013672;28;20026;-83
2022/05/09 01:58:28;;;;;;;9.05;2.97;;;13.80;80.70;;;;;;5013082;28;20478;-83
2022/05/09 02:00:54;;;;;;;12.63;3.90;;;13.80;80.80;;;;;;5013392;28;20072;-83
2022/05/09 02:03:20;;;;;;;8.32;3.25;;;13.80;80.90;;;;;;5012943;28;20034;-84
2022/05/09 02:05:48;;;;;;;7.68;3.25;;;13.70;81.00;;;;;;4995476;28;20026;-83
2022/05/09 02:08:14;;;;;;;7.47;3.20;;;13.70;81.00;;;;;;5012732;28;20387;-83
2022/05/09 02:10:41;;;;;;;7.72;3.28;;;13.70;80.80;;;;;;5013108;28;20037;-83
2022/05/09 02:13:07;;;;;;;11.05;3.58;;;13.80;80.80;;;;;;5012731;28;20065;-83
2022/05/09 02:15:33;;;;;;;7.50;3.33;;;13.80;80.70;;;;;;5012996;28;20101;-83
2022/05/09 02:17:59;;;;;;;10.98;3.42;;;13.80;80.40;;;;;;4995075;28;20120;-83
2022/05/09 02:20:25;;;;;;;6.82;2.70;;;13.80;80.10;;;;;;5012806;28;20542;-83
2022/05/09 02:22:51;;;;;;;8.32;2.95;;;13.80;80.00;;;;;;5012660;28;20405;-83
2022/05/09 02:25:29;;;;;;;9.23;3.30;;;13.80;79.90;;;;;;5012907;28;20030;-83
2022/05/09 02:28:00;;;;;;;6.28;2.95;;;13.80;80.10;;;;;;5012188;28;20038;-83
2022/05/09 02:30:27;;;;;;;7.88;3.03;;;13.80;80.10;;;;;;5012672;28;20087;-83
2022/05/09 02:32:53;;;;;;;9.00;3.05;;;13.80;80.00;;;;;;5012305;28;20113;-84
2022/05/09 02:35:20;;;;;;;8.32;3.05;;;13.90;80.00;;;;;;4995053;28;20072;-83
2022/05/09 02:37:48;;;;;;;7.72;3.20;;;13.90;80.00;;;;;;5012356;28;20033;-84
2022/05/09 02:40:15;;;;;;;6.75;2.60;;;13.90;79.90;;;;;;5012574;28;20033;-83
2022/05/09 02:42:41;;;;;;;8.05;3.58;;;13.80;80.40;;;;;;5012192;28;20033;-83
2022/05/09 02:45:07;;;;;;;9.07;3.03;;;13.90;79.80;;;;;;5012292;28;20474;-83
2022/05/09 02:47:33;;;;;;;6.65;2.75;;;13.80;79.70;;;;;;5011907;28;20029;-83
2022/05/09 02:49:59;;;;;;;9.80;3.00;;;13.80;79.90;;;;;;5012218;28;20029;-83
2022/05/09 02:52:24;;;;;;;9.05;3.13;;;13.80;79.90;;;;;;4994382;28;20386;-83
2022/05/09 02:54:50;;;;;;;10.57;2.88;;;13.80;79.90;;;;;;5012413;28;20512;-83
2022/05/09 02:57:16;;;;;;;8.77;2.88;;;13.70;80.00;;;;;;5011921;28;20029;-83
2022/05/09 02:59:42;;;;;;;12.07;3.45;;;13.70;80.30;;;;;;5012088;28;20505;-83
2022/05/09 03:02:08;;;;;;;8.57;2.88;;;13.70;80.30;;;;;;5011867;28;20363;-83
2022/05/09 03:04:41;;;;;;;13.63;3.20;;;13.70;80.50;;;;;;5011921;28;20080;-83
2022/05/09 03:07:16;;;;;;;8.13;2.92;;;13.60;80.60;;;;;;5011914;28;20095;-83
2022/05/09 03:09:45;;;;;;;8.95;3.35;;;13.60;80.90;;;;;;5012290;28;20046;-83
2022/05/09 03:12:11;;;;;;;8.60;2.80;;;13.50;81.00;;;;;;5011996;28;20026;-83
2022/05/09 03:14:38;;;;;;;9.85;3.03;;;13.60;81.20;;;;;;5011675;28;20037;-83
2022/05/09 03:17:05;;;;;;;7.03;3.13;;;13.50;81.10;;;;;;5011995;28;20540;-83
2022/05/09 03:19:31;;;;;;;10.07;3.30;;;13.50;81.30;;;;;;5011807;28;20509;-83
2022/05/09 03:21:57;;;;;;;12.77;3.22;;;13.40;81.40;;;;;;5011879;28;20026;-83
2022/05/09 03:24:23;;;;;;;13.95;3.10;;;13.50;81.60;;;;;;5011819;28;20164;-83
2022/05/09 03:26:49;;;;;;;9.90;3.55;;;13.50;81.60;;;;;;5011586;28;20159;-83
2022/05/09 03:29:18;;;;;;;12.30;3.47;;;13.50;81.40;;;;;;5011598;28;20278;-83
2022/05/09 03:31:45;;;;;;;10.60;3.30;;;13.50;81.50;;;;;;5011682;28;20034;-83
2022/05/09 03:34:11;;;;;;;8.95;2.83;;;13.40;81.40;;;;;;4977887;28;20034;-83
2022/05/09 03:36:37;;;;;;;10.32;3.67;;;13.40;81.60;;;;;;5011543;28;20403;-83
2022/05/09 03:39:04;;;;;;;10.50;2.92;;;13.40;81.70;;;;;;5012042;28;20030;-83
2022/05/09 03:41:30;;;;;;;10.00;3.22;;;13.40;81.70;;;;;;5011440;28;20253;-83
2022/05/09 03:43:55;;;;;;;12.70;3.35;;;13.40;81.80;;;;;;5011639;28;20040;-83
2022/05/09 03:46:21;;;;;;;8.73;3.22;;;13.50;81.70;;;;;;5011518;28;20029;-83
2022/05/09 03:48:47;;;;;;;8.45;3.00;;;13.40;81.60;;;;;;5011496;28;20033;-84
2022/05/09 03:51:13;;;;;;;9.65;3.40;;;13.40;81.90;;;;;;4993978;28;20489;-83
2022/05/09 03:53:38;;;;;;;10.40;2.75;;;13.40;82.30;;;;;;5011230;28;20033;-83
2022/05/09 03:56:05;;;;;;;9.25;2.80;;;13.40;82.40;;;;;;5011686;28;20323;-83
2022/05/09 03:58:31;;;;;;;8.73;3.53;;;13.40;82.30;;;;;;5011108;28;20060;-84
2022/05/09 04:00:57;;;;;;;8.10;3.38;;;13.40;82.50;;;;;;4993977;28;20057;-84
2022/05/09 04:03:22;;;;;;;9.88;3.00;;;13.40;82.80;;;;;;5011151;28;20490;-84
2022/05/09 04:05:48;;;;;;;8.23;3.28;;;13.30;82.60;;;;;;5011415;28;20034;-84
2022/05/09 04:08:17;;;;;;;11.02;3.70;;;13.20;82.90;;;;;;5011096;28;20034;-84
2022/05/09 04:10:45;;;;;;;7.95;3.63;;;13.30;83.00;;;;;;4993746;28;20176;-84
2022/05/09 04:13:12;;;;;;;12.60;3.80;;;13.20;83.20;;;;;;5011127;28;20161;-84
2022/05/09 04:18:28;;;;;;;10.50;3.90;;;13.20;83.50;;;;;;5011160;28;20390;-83
2022/05/09 04:20:54;;;;;;;10.88;3.72;;;13.20;83.40;;;;;;4993780;28;20065;-83
2022/05/09 04:23:20;;;;;;;9.65;3.55;;;13.20;83.40;;;;;;4993361;28;20049;-83
2022/05/09 04:25:47;;;;;;;9.45;3.40;;;13.20;83.60;;;;;;5011498;28;20026;-83
2022/05/09 04:28:17;;;;;;;10.00;3.53;;;13.20;83.70;;;;;;5011397;28;20076;-84
2022/05/09 04:30:43;;;;;;;11.10;4.00;;;13.20;83.90;;;;;;4993702;28;20497;-83
2022/05/09 04:33:09;;;;;;;13.10;5.00;;;13.20;83.90;;;;;;5010880;28;20034;-84
2022/05/09 04:35:38;;;;;;;9.07;3.80;;;13.20;84.30;;;;;;5011148;28;20026;-84
2022/05/09 04:38:04;;;;;;;11.77;3.70;;;13.20;84.50;;;;;;5011746;28;20038;-84
2022/05/09 04:40:33;;;;;;;11.98;4.13;;;13.20;84.30;;;;;;5011273;28;20034;-84
2022/05/09 04:43:00;;;;;;;11.45;4.07;;;13.20;84.20;;;;;;4993214;28;20046;-84
2022/05/09 04:45:27;;;;;;;8.20;3.65;;;13.20;84.50;;;;;;5011124;28;20045;-84
2022/05/09 04:47:53;;;;;;;11.02;3.60;;;13.10;84.60;;;;;;5010910;28;20079;-84
2022/05/09 04:50:22;;;;;;;11.07;3.73;;;13.10;84.70;;;;;;5011069;28;20030;-84
2022/05/09 04:52:48;;;;;;;12.45;3.88;;;13.20;84.90;;;;;;5015355;28;20104;-84
2022/05/09 04:55:15;;;;;;;9.23;4.03;;;13.20;85.00;;;;;;5024558;28;20022;-83
2022/05/09 04:57:42;;;;;;;9.98;3.60;;;13.10;85.00;;;;;;5005844;28;20379;-84
2022/05/09 05:00:11;;;;;;;9.05;4.22;;;13.20;85.40;;;;;;5023968;28;20034;-83
2022/05/09 05:02:37;;;;;;;12.57;4.20;;;13.20;85.40;;;;;;5014358;28;20463;-84
2022/05/09 05:05:05;;;;;;;9.43;4.18;;;13.20;85.30;;;;;;5014168;28;20045;-84
2022/05/09 05:07:30;;;;;;;11.38;4.15;;;13.10;85.60;;;;;;5013957;28;20151;-84
2022/05/09 05:09:56;;;;;;;9.83;4.23;;;13.10;85.80;;;;;;5014362;28;20105;-83
2022/05/09 05:12:23;;;;;;;10.75;4.00;;;13.20;85.80;;;;;;5014016;28;20474;-84
2022/05/09 05:14:48;;;;;;;11.60;4.07;;;13.10;85.90;;;;;;5014168;28;20029;-84
2022/05/09 05:17:14;;;;;;;10.85;4.10;;;13.20;86.20;;;;;;4979973;28;20030;-84
2022/05/09 05:19:42;;;;;;;10.77;3.83;;;13.20;86.80;;;;;;5013828;28;20034;-84
2022/05/09 05:22:10;;;;;;;9.40;4.07;;;13.10;86.30;;;;;;4996403;28;20040;-83
2022/05/09 05:24:37;;;;;;;12.10;4.07;;;13.20;86.10;;;;;;4996571;28;20038;-84
2022/05/09 05:27:06;;;;;;;9.40;4.03;;;13.20;86.60;;;;;;5013762;28;20042;-83
2022/05/09 05:29:32;;;;;;;9.27;4.20;;;13.30;86.80;;;;;;5014250;28;20330;-83
2022/05/09 05:31:58;;;;;;;9.30;4.07;;;13.30;86.60;;;;;;5013514;28;20029;-84
2022/05/09 05:34:24;;;;;;;10.50;4.28;;;13.30;86.50;;;;;;4996022;28;20121;-83
2022/05/09 05:36:54;;;;;;;12.80;3.97;;;13.30;86.90;;;;;;5013448;28;20505;-83
2022/05/09 05:39:20;;;;;;;13.88;4.03;;;13.30;86.40;;;;;;4996161;28;20438;-84
2022/05/09 05:41:46;;;;;;;9.85;4.10;;;13.30;87.00;;;;;;5013140;28;20029;-82
2022/05/09 05:44:12;;;;;;;10.23;3.97;;;13.40;87.10;;;;;;5013469;28;20076;-83
2022/05/09 05:46:41;;;;;;;10.20;4.28;;;13.40;86.50;;;;;;4995941;28;20310;-83
2022/05/09 05:49:09;;;;;;;9.75;3.65;;;13.50;86.30;;;;;;5013413;28;20030;-83
2022/05/09 05:51:38;;;;;;;14.55;4.28;;;13.60;86.40;;;;;;5013201;28;20394;-83
2022/05/09 05:54:07;;;;;;;8.80;3.67;;;13.50;86.40;;;;;;5026666;23;20132;-66
2022/05/09 05:56:36;;;;;;;10.30;4.07;;;13.60;86.50;;;;;;5013719;28;20394;-65
2022/05/09 05:59:02;;;;;;;11.38;4.05;;;13.60;86.70;;;;;;4995823;28;20114;-65
2022/05/09 06:01:28;;;;;;;11.88;4.05;;;13.60;86.60;;;;;;5013334;28;20124;-66
2022/05/09 06:03:54;;;;;;;9.52;4.18;;;13.70;87.20;;;;;;5013153;28;20092;-66
2022/05/09 06:06:20;;;;;;;9.40;3.78;;;13.70;86.80;;;;;;5013457;28;20034;-67
2022/05/09 06:08:46;;;;;;;10.98;4.20;;;13.80;86.80;;;;;;5013046;28;20487;-66
2022/05/09 06:11:13;;;;;;;7.10;3.85;;;13.80;86.90;;;;;;5013346;28;20437;-66
2022/05/09 06:13:40;;;;;;;9.18;3.95;;;13.90;86.80;;;;;;5012946;28;20040;-66
2022/05/09 06:16:07;;;;;;;8.20;4.47;;;14.00;86.70;;;;;;5013113;28;20034;-66
2022/05/09 06:18:33;;;;;;;9.93;3.60;;;14.00;86.40;;;;;;5012867;28;20037;-66
2022/05/09 06:20:58;;;;;;;10.63;4.30;;;14.10;87.10;;;;;;5013110;28;20088;-66
2022/05/09 06:23:25;;;;;;;10.90;4.25;;;14.20;86.50;;;;;;5013021;28;20626;-66
2022/05/09 06:25:51;;;;;;;8.38;3.75;;;14.20;86.60;;;;;;5012822;28;20037;-66
2022/05/09 06:28:22;;;;;;;8.80;3.97;;;14.20;87.00;;;;;;5012619;28;20025;-66
2022/05/09 06:30:48;;;;;;;11.60;4.03;;;14.30;86.80;;;;;;5012725;28;20037;-66
2022/05/09 06:33:21;;;;;;;10.95;3.85;;;14.30;87.00;;;;;;5013090;28;20030;-66
2022/05/09 06:35:47;;;;;;;9.15;3.13;;;14.40;87.30;;;;;;4995208;28;20061;-66
2022/05/09 06:38:15;;;;;;;7.45;3.40;;;14.40;87.40;;;;;;5012613;28;20113;-66
2022/05/09 06:40:41;;;;;;;9.55;3.55;;;14.50;87.50;;;;;;5013045;28;20076;-66
2022/05/09 06:43:08;;;;;;;12.25;4.47;;;14.50;87.40;;;;;;5012599;28;20026;-66
2022/05/09 06:45:38;;;;;;;9.88;3.88;;;14.60;87.50;;;;;;4994907;28;20454;-67
2022/05/09 06:48:05;;;;;;;10.50;3.83;;;14.60;87.50;;;;;;5012084;28;20137;-65
2022/05/09 06:50:35;;;;;;;9.55;3.70;;;14.70;87.50;;;;;;5012678;28;20391;-65
2022/05/09 06:53:05;;;;;;;12.05;3.92;;;14.80;87.50;;;;;;5012417;28;20026;-66
2022/05/09 06:55:31;;;;;;;7.38;3.08;;;14.80;87.40;;;;;;4994865;28;20033;-66
2022/05/09 06:57:57;;;;;;;8.77;3.17;;;14.80;87.50;;;;;;4994638;28;20032;-65
2022/05/09 07:00:25;;;;;;;10.15;3.80;;;14.90;87.80;;;;;;5012550;28;20435;-65
2022/05/09 07:02:52;;;;;;;6.45;2.83;;;14.90;88.00;;;;;;4994506;28;20109;-67
2022/05/09 07:05:20;;;;;;;6.15;2.65;;;15.00;89.20;;;;;;5012064;28;20053;-67
2022/05/09 07:07:48;;;;;;;6.57;2.78;;;15.00;89.50;;;;;;5011652;28;20064;-70
2022/05/09 07:10:16;;;;;;;5.72;2.42;;;15.10;90.20;;;;;;4994506;28;20635;-70
2022/05/09 07:12:48;;;;;;;8.02;2.50;;;15.20;90.40;;;;;;5011654;28;20038;-68
2022/05/09 07:15:15;;;;;;;;;;;15.30;90.60;;;;;;5011713;28;20030;-68
2022/05/09 07:17:42;;;;;;;12.40;3.70;;;15.40;89.80;;;;;;4994162;28;19947;-68
2022/05/09 07:20:08;;;;;;;14.10;4.95;;;15.50;88.20;;;;;;5010941;28;20033;-67
2022/05/09 07:22:34;;;;;;;16.20;6.68;;;15.50;87.40;;;;;;5011602;28;20025;-67
2022/05/09 07:25:02;;;;;;;8.27;4.38;;;15.60;87.60;;;;;;5011422;28;20110;-67
2022/05/09 07:27:30;;;;;;;11.00;4.25;;;15.70;87.70;;;;;;4992346;28;20029;-68
2022/05/09 07:29:57;;;;;;;6.80;3.08;;;15.70;87.10;;;;;;4993185;28;20088;-68
2022/05/09 07:32:23;;;;;;;6.25;2.58;;;15.70;86.30;;;;;;5010511;28;20033;-68
2022/05/09 07:34:51;;;;;;;7.63;2.42;;;15.70;86.30;;;;;;5010212;28;20443;-68
2022/05/09 07:37:18;;;;;;;7.47;2.05;;;15.80;86.40;;;;;;5010005;28;20029;-68
2022/05/09 07:39:44;;;;;;;9.85;2.40;;;15.80;86.20;;;;;;5009977;28;20407;-68
2022/05/09 07:42:11;;;;;;;5.55;2.22;;;15.80;86.30;;;;;;5010036;28;20467;-68
2022/05/09 07:44:38;;;;;;;8.15;2.40;;;15.90;86.60;;;;;;5009955;28;20034;-68
2022/05/09 07:47:04;;;;;;;8.75;2.50;;;15.90;86.70;;;;;;5010300;28;20512;-68
2022/05/09 07:49:30;;;;;;;8.52;2.85;;;15.90;87.10;;;;;;5011378;28;20065;-68
2022/05/09 07:51:56;;;;;;;9.75;3.38;;;15.90;87.20;;;;;;5011179;28;20092;-68
2022/05/09 07:54:22;;;;;;;7.60;2.30;;;15.90;87.30;;;;;;5011248;28;20033;-68
2022/05/09 07:56:49;;;;;;;4.75;2.15;;;16.00;88.00;;;;;;5011072;28;20025;-68
2022/05/09 07:59:17;;;;;;;5.53;2.10;;;16.00;87.30;;;;;;5011315;28;20050;-67
2022/05/09 08:01:43;;;;;;;6.78;2.30;;;16.00;87.40;;;;;;5011338;28;20033;-68
2022/05/09 08:04:09;;;;;;;9.98;2.97;;;16.00;87.60;;;;;;5011188;28;20060;-68
2022/05/09 08:06:35;;;;;;;9.35;3.00;;;16.10;88.00;;;;;;5010972;28;20113;-68
2022/05/09 08:09:02;;;;;;;7.00;2.38;;;16.10;87.90;;;;;;5011057;28;20030;-68
2022/05/09 08:11:29;;;;;;;5.10;2.20;;;16.10;87.90;;;;;;5011168;28;20037;-68
2022/05/09 08:13:54;;;;;;;7.57;2.35;;;16.20;88.10;;;;;;5010997;28;20114;-67
2022/05/09 08:16:20;;;;;;;5.47;2.10;;;16.20;88.10;;;;;;5010986;28;20105;-68
2022/05/09 08:18:47;;;;;;;3.45;1.90;;;16.20;87.90;;;;;;5010898;28;20038;-68
2022/05/09 08:21:13;;;;;;;6.80;2.42;;;16.20;87.90;;;;;;5011134;28;20533;-68
2022/05/09 08:23:39;;;;;;;6.47;1.95;;;16.30;88.50;;;;;;5010873;28;20113;-67
2022/05/09 08:26:05;;;;;;;5.97;1.85;;;16.30;88.70;;;;;;5011807;28;20057;-68
2022/05/09 08:28:31;;;;;;;8.07;2.60;;;16.30;88.70;;;;;;5014744;28;20030;-67
2022/05/09 08:30:57;;;;;;;5.25;2.20;;;16.30;88.10;;;;;;5014887;28;20541;-68
2022/05/09 08:33:26;;;;;;;5.50;2.10;;;16.30;88.20;;;;;;5014758;28;20025;-68
2022/05/09 08:35:53;;;;;;;5.25;2.17;;;16.40;88.50;;;;;;5014972;28;20053;-68
2022/05/09 08:38:20;;;;;;;6.65;2.08;;;16.40;88.30;;;;;;5014520;28;20034;-68
2022/05/09 08:40:58;;;;;;;5.72;2.13;;;16.50;88.10;;;;;;5014814;28;20041;-68
2022/05/09 08:43:59;;;;;;;6.65;2.20;;;16.50;88.40;;;;;;4997321;28;20112;-68
2022/05/09 08:47:03;;;;;;;5.65;2.20;;;16.50;88.40;;;;;;5005326;28;20049;-68
2022/05/09 08:49:54;;;;;;;6.22;2.10;;;16.50;88.60;;;;;;5014781;28;20135;-68
2022/05/09 08:52:34;;;;;;;7.95;2.67;;;16.50;89.10;;;;;;5014796;28;20029;-68
2022/05/09 08:55:01;;;;;;;6.00;2.42;;;16.60;89.40;;;;;;5014570;28;20041;-68
2022/05/09 08:58:00;;;;;;;6.57;2.58;;;16.60;89.60;;;;;;5014437;28;20045;-67
2022/05/09 09:00:29;;;;;;;4.63;2.40;;;16.70;89.80;;;;;;5014337;28;20081;-67
2022/05/09 09:03:00;;;;;;;5.13;2.60;;;16.70;89.60;;;;;;5014227;28;20038;-68
2022/05/09 09:05:32;;;;;;;4.60;2.50;;;16.70;89.80;;;;;;5014428;28;20025;-67
2022/05/09 09:08:13;;;;;;;8.55;2.58;;;16.80;89.80;;;;;;5014175;28;20038;-67
2022/05/09 09:11:02;;;;;;;8.55;2.97;;;16.90;90.00;;;;;;5014343;28;20083;-68
2022/05/09 09:13:46;;;;;;;5.97;2.70;;;16.90;89.40;;;;;;5014442;28;20026;-68
2022/05/09 09:16:22;;;;;;;4.95;2.20;;;17.00;89.30;;;;;;5014207;28;20022;-69
2022/05/09 09:19:32;;;;;;;10.60;3.50;;;17.00;90.00;;;;;;5013926;28;20087;-69
2022/05/09 09:22:13;;;;;;;5.95;2.55;;;17.10;90.00;;;;;;5013841;28;20030;-68
2022/05/09 09:25:04;;;;;;;6.13;2.72;;;17.10;89.80;;;;;;5014285;28;20033;-67
2022/05/09 09:28:15;;;;;;;8.35;2.97;;;17.10;90.20;;;;;;5013705;28;20372;-67
2022/05/09 09:30:42;;;;;;;9.02;3.65;;;17.20;90.40;;;;;;4959979;28;20454;-67
2022/05/09 09:33:12;;;;;;;5.43;3.35;;;17.30;90.40;;;;;;5013758;28;20057;-67
2022/05/09 09:36:08;;;;;;;8.55;3.75;;;17.30;90.30;;;;;;5013837;28;20057;-66
2022/05/09 09:39:00;;;;;;;7.72;3.75;;;17.40;90.30;;;;;;5012732;28;20041;-66
2022/05/09 09:41:30;;;;;;;8.30;3.65;;;17.40;90.30;;;;;;4983307;28;20065;-66
2022/05/09 09:44:09;;;;;;;7.70;3.53;;;17.50;90.50;;;;;;5013810;28;20108;-66
2022/05/09 09:47:09;;;;;;;8.15;3.40;;;17.60;90.50;;;;;;5013467;28;20125;-67
2022/05/09 09:49:41;;;;;;;6.50;3.15;;;17.60;90.60;;;;;;5013586;28;20042;-67
2022/05/09 09:52:23;;;;;;;6.88;2.85;;;17.60;91.40;;;;;;5013473;28;20479;-67
2022/05/09 09:55:04;;;;;;;7.22;3.60;;;17.60;91.40;;;;;;5013447;28;20070;-67
2022/05/09 09:57:36;;;;;;;6.43;3.40;;;17.60;91.60;;;;;;5013332;28;20040;-67
2022/05/09 10:00:23;;;;;;;6.03;3.00;;;17.60;91.80;;;;;;5013479;28;20386;-67
2022/05/09 10:02:51;;;;;;;5.95;3.00;;;17.60;91.30;;;;;;5012969;28;20037;-67
2022/05/09 10:05:20;;;;;;;5.25;3.25;;;17.60;91.00;;;;;;5013222;28;20385;-67
2022/05/09 10:07:47;;;;;;;4.88;2.85;;;17.60;90.90;;;;;;5013029;28;20033;-67
2022/05/09 10:10:18;;;;;;;7.00;3.30;;;17.60;91.00;;;;;;5013626;28;20060;-67
2022/05/09 10:12:53;;;;;;;9.10;3.78;;;17.60;91.20;;;;;;5013124;28;20087;-67
2022/05/09 10:15:25;;;;;;;8.35;3.40;;;17.70;91.00;;;;;;5013178;28;20037;-67
2022/05/09 10:17:51;;;;;;;6.45;3.30;;;17.70;90.90;;;;;;5012909;28;20038;-67
2022/05/09 10:20:29;;;;;;;5.78;3.25;;;17.70;90.80;;;;;;5013043;28;20030;-67
2022/05/09 10:26:27;;;;;;;10.27;4.20;;;17.70;91.10;;;;;;5012905;28;20041;-67
2022/05/09 10:29:00;;;;;;;6.43;3.25;;;17.70;91.20;;;;;;5012810;28;20037;-67
2022/05/09 10:31:34;;;;;;;7.00;2.92;;;17.70;91.30;;;;;;5012938;28;20048;-67
2022/05/09 10:34:03;;;;;;;7.20;3.42;;;17.70;91.30;;;;;;5012655;28;20390;-66
2022/05/09 10:36:32;;;;;;;8.15;4.53;;;17.70;91.40;;;;;;5012427;28;20034;-67
2022/05/09 10:39:12;;;;;;;7.60;4.10;;;17.80;91.40;;;;;;5012459;28;20036;-67
2022/05/09 10:41:52;;;;;;;8.38;4.35;;;17.90;91.20;;;;;;5012503;28;20034;-67
2022/05/09 10:44:46;;;;;;;7.53;4.13;;;18.10;91.10;;;;;;5012578;28;20105;-66
2022/05/09 10:47:15;;;;;;;5.60;3.47;;;18.20;90.90;;;;;;4994809;28;20054;-67
2022/05/09 10:50:13;;;;;;;7.20;3.50;;;18.20;90.90;;;;;;5012265;28;20026;-67
2022/05/09 10:53:15;;;;;;;5.93;3.20;;;18.20;91.00;;;;;;4980258;28;20116;-67
2022/05/09 10:56:03;;;;;;;7.05;3.95;;;18.20;91.20;;;;;;5012301;28;20068;-67
2022/05/09 10:58:38;;;;;;;5.72;3.20;;;18.20;91.10;;;;;;5011637;28;20041;-67
2022/05/09 11:01:20;;;;;;;4.90;3.10;;;18.20;91.30;;;;;;5012178;28;20426;-67
2022/05/09 11:03:46;;;;;;;6.63;3.90;;;18.20;91.20;;;;;;5012290;28;20029;-66
2022/05/09 11:06:51;;;;;;;7.25;4.28;;;18.20;91.20;;;;;;5012170;28;20140;-67
2022/05/09 11:09:29;;;;;;;7.57;3.97;;;18.20;91.10;;;;;;5011989;28;20041;-67
2022/05/09 11:12:21;;;;;;;9.63;4.82;;;18.30;91.00;;;;;;5011935;28;20081;-67
2022/05/09 11:15:07;;;;;;;6.80;3.70;;;18.40;90.80;;;;;;5012186;28;20034;-67
2022/05/09 11:17:48;;;;;;;6.82;4.25;;;18.50;90.80;;;;;;5011852;28;20475;-67
2022/05/09 11:20:24;;;;;;;7.53;4.25;;;18.60;90.20;;;;;;5012202;28;20030;-68
2022/05/09 11:23:17;;;;;;;7.18;3.83;;;18.70;90.20;;;;;;5011903;28;20398;-67
2022/05/09 11:26:14;;;;;;;5.53;3.70;;;18.60;90.30;;;;;;5011907;28;20034;-67
2022/05/09 11:28:58;;;;;;;6.93;4.32;;;18.60;90.50;;;;;;5011570;28;20478;-67
2022/05/09 11:31:39;;;;;;;7.63;4.35;;;18.70;90.50;;;;;;4994162;28;20030;-67
2022/05/09 11:34:29;;;;;;;7.38;4.25;;;18.80;90.40;;;;;;5011661;28;20025;-67
2022/05/09 11:37:08;;;;;;;11.60;4.30;;;18.90;90.40;;;;;;5011853;28;20026;-67
2022/05/09 11:39:34;;;;;;;;;;;19.00;89.90;;;;;;4994750;28;20276;-67
2022/05/09 11:45:22;;;;;;;6.15;4.15;;;19.20;88.20;;;;;;5011615;28;20100;-67
2022/05/09 11:48:12;;;;;;;10.32;4.97;;;19.20;88.60;;;;;;4993537;28;20435;-67
2022/05/09 11:50:41;;;;;;;8.40;4.60;;;19.30;88.90;;;;;;5012050;28;20026;-67
2022/05/09 11:53:07;;;;;;;;;;;19.40;86.70;;;;;;5035932;23;20146;-83
2022/05/09 11:55:36;;;;;;;8.43;4.35;;;19.40;86.00;;;;;;4992942;28;19913;-80
2022/05/09 11:58:03;;;;;;;9.43;4.20;;;19.30;86.70;;;;;;4992865;28;20544;-81
2022/05/09 12:00:35;;;;;;;9.13;4.20;;;19.30;86.60;;;;;;5010773;28;20029;-81
2022/05/09 12:03:05;;;;;;;9.48;4.80;;;19.40;85.90;;;;;;5010990;28;20025;-80
2022/05/09 12:05:31;;;;;;;10.55;4.80;;;19.60;85.80;;;;;;5010979;28;20081;-80
2022/05/09 12:08:07;;;;;;;8.50;4.70;;;19.70;83.60;;;;;;5010648;28;20034;-81
2022/05/09 12:10:38;;;;;;;8.23;3.97;;;19.80;83.40;;;;;;5011017;28;20026;-81
2022/05/09 12:13:06;;;;;;;5.97;3.83;;;19.90;81.90;;;;;;5010874;28;20034;-81
2022/05/09 12:15:33;;;;;;;7.22;4.20;;;19.80;82.30;;;;;;5010924;28;20022;-81
2022/05/09 12:17:58;;;;;;;7.45;4.78;;;19.70;83.30;;;;;;5010605;28;20034;-80
2022/05/09 12:20:28;;;;;;;8.25;4.32;;;19.80;82.10;;;;;;5010806;28;20505;-81
2022/05/09 12:22:56;;;;;;;8.77;5.07;;;20.00;80.20;;;;;;5010504;28;20548;-80
2022/05/09 12:25:34;;;;;;;7.43;4.65;;;20.00;81.50;;;;;;4993176;28;20119;-81
2022/05/09 12:28:08;;;;;;;7.82;4.78;;;20.20;80.70;;;;;;4992993;28;20030;-80
2022/05/09 12:30:45;;;;;;;7.50;4.38;;;20.30;82.20;;;;;;4993115;28;20026;-80
2022/05/09 12:33:17;;;;;;;7.97;4.35;;;20.30;83.20;;;;;;5010288;28;20064;-80
2022/05/09 12:35:44;;;;;;;9.90;4.43;;;20.20;83.80;;;;;;5010442;28;20030;-80
2022/05/09 12:38:12;;;;;;;5.57;3.85;;;20.20;83.00;;;;;;5010498;28;20379;-80
2022/05/09 12:40:38;;;;;;;5.15;3.83;;;20.30;83.40;;;;;;5010966;28;20552;-80
2022/05/09 12:43:04;;;;;;;10.00;5.03;;;20.30;80.60;;;;;;5010550;28;20113;-80
2022/05/09 12:45:31;;;;;;;6.13;3.85;;;20.40;80.20;;;;;;5011010;28;20091;-80
2022/05/09 12:47:59;;;;;;;6.95;4.40;;;20.40;80.00;;;;;;5010775;28;20396;-80
2022/05/09 12:50:34;;;;;;;8.32;4.03;;;20.50;79.80;;;;;;5010765;28;20363;-80
2022/05/09 12:53:08;;;;;;;7.07;3.88;;;20.60;79.40;;;;;;4992465;28;20057;-81
2022/05/09 12:55:57;;;;;;;8.68;4.07;;;20.60;80.30;;;;;;5010470;28;20026;-81
2022/05/09 12:58:40;;;;;;;7.03;3.90;;;20.60;79.30;;;;;;5010287;28;20176;-80
2022/05/09 13:01:23;;;;;;;6.13;3.85;;;20.50;79.30;;;;;;5010861;28;20038;-81
2022/05/09 13:04:01;;;;;;;7.30;3.92;;;20.50;79.30;;;;;;5010412;28;20105;-80
2022/05/09 13:06:30;;;;;;;5.65;3.55;;;20.50;78.80;;;;;;5010193;28;20030;-80
2022/05/09 13:08:57;;;;;;;;;;;20.60;76.50;;;;;;5010755;28;20033;-80
2022/05/09 13:11:30;;;;;;;4.88;3.22;;;20.60;75.70;;;;;;5010342;28;19910;-80
2022/05/09 13:14:23;;;;;;;6.07;3.50;;;20.60;76.60;;;;;;5012421;28;20034;-81
2022/05/09 13:17:00;;;;;;;5.28;3.10;;;20.60;77.20;;;;;;5005188;28;20406;-81